sensor_id;sensor_type;location;lat;lon;timestamp;P1;durP1;ratioP1;P2;durP2;ratioP2
13204;SDS011;6667;52.634;9.226;2022-10-16T07:05:26;3.37;;;1.90;;
13204;SDS011;6667;52.634;9.226;2022-10-16T07:07:52;2.13;;;1.67;;
13204;SDS011;6667;52.634;9.226;2022-10-16T07:10:19;2.57;;;1.67;;
13204;SDS011;6667;52.634;9.226;2022-10-16T07:12:49;3.73;;;2.37;;
13204;SDS011;6667;52.634;9.226;2022-10-16T07:15:15;4.10;;;1.93;;
13204;SDS011;6667;52.634;9.226;2022-10-16T07:17:42;2.30;;;1.50;;
13204;SDS011;6667;52.634;9.226;2022-10-16T07:20:09;2.87;;;1.53;;
13204;SDS011;6667;52.634;9.226;2022-10-16T07:22:37;3.37;;;1.77;;
13204;SDS011;6667;52.634;9.226;2022-10-16T07:25:04;1.57;;;1.47;;
13204;SDS011;6667;52.634;9.226;2022-10-16T07:27:32;2.03;;;1.33;;
13204;SDS011;6667;52.634;9.226;2022-10-16T07:29:59;3.00;;;1.50;;
13204;SDS011;6667;52.634;9.226;2022-10-16T07:32:26;1.97;;;1.60;;
13204;SDS011;6667;52.634;9.226;2022-10-16T07:34:53;5.67;;;1.87;;
13204;SDS011;6667;52.634;9.226;2022-10-16T07:37:20;3.83;;;1.47;;
13204;SDS011;6667;52.634;9.226;2022-10-16T07:39:48;1.60;;;1.50;;
13204;SDS011;6667;52.634;9.226;2022-10-16T07:42:15;1.63;;;1.30;;
13204;SDS011;6667;52.634;9.226;2022-10-16T07:44:42;2.17;;;1.50;;
13204;SDS011;6667;52.634;9.226;2022-10-16T07:47:08;3.07;;;1.67;;
13204;SDS011;6667;52.634;9.226;2022-10-16T07:49:35;3.90;;;1.80;;
13204;SDS011;6667;52.634;9.226;2022-10-16T07:52:02;2.43;;;1.50;;
13204;SDS011;6667;52.634;9.226;2022-10-16T07:54:29;1.87;;;1.53;;
13204;SDS011;6667;52.634;9.226;2022-10-16T07:56:57;3.27;;;1.77;;
13204;SDS011;6667;52.634;9.226;2022-10-16T07:59:24;1.73;;;1.63;;
13204;SDS011;6667;52.634;9.226;2022-10-16T08:01:50;1.40;;;1.30;;
13204;SDS011;6667;52.634;9.226;2022-10-16T08:04:17;3.93;;;1.40;;
13204;SDS011;6667;52.634;9.226;2022-10-16T08:06:44;2.20;;;2.00;;
13204;SDS011;6667;52.634;9.226;2022-10-16T08:09:10;2.37;;;1.80;;
13204;SDS011;6667;52.634;9.226;2022-10-16T08:11:37;3.17;;;1.27;;
13204;SDS011;6667;52.634;9.226;2022-10-16T08:14:05;3.50;;;1.57;;
13204;SDS011;6667;52.634;9.226;2022-10-16T08:16:32;4.27;;;1.67;;
13204;SDS011;6667;52.634;9.226;2022-10-16T08:18:59;2.93;;;2.20;;
13204;SDS011;6667;52.634;9.226;2022-10-16T08:21:25;2.40;;;1.90;;
13204;SDS011;6667;52.634;9.226;2022-10-16T08:23:52;2.20;;;1.60;;
13204;SDS011;6667;52.634;9.226;2022-10-16T08:26:20;3.73;;;2.23;;
13204;SDS011;6667;52.634;9.226;2022-10-16T08:28:48;2.87;;;1.50;;
13204;SDS011;6667;52.634;9.226;2022-10-16T08:31:17;2.10;;;1.20;;
13204;SDS011;6667;52.634;9.226;2022-10-16T08:33:44;1.80;;;1.57;;
13204;SDS011;6667;52.634;9.226;2022-10-16T08:36:12;10.33;;;1.60;;
13204;SDS011;6667;52.634;9.226;2022-10-16T08:38:39;1.50;;;1.40;;
13204;SDS011;6667;52.634;9.226;2022-10-16T08:41:18;1.80;;;1.47;;
13204;SDS011;6667;52.634;9.226;2022-10-16T08:44:04;1.70;;;1.10;;
13204;SDS011;6667;52.634;9.226;2022-10-16T08:46:47;1.30;;;1.20;;
13204;SDS011;6667;52.634;9.226;2022-10-16T08:49:21;3.53;;;1.97;;
13204;SDS011;6667;52.634;9.226;2022-10-16T08:51:49;4.97;;;2.00;;
13204;SDS011;6667;52.634;9.226;2022-10-16T08:54:21;2.10;;;1.33;;
13204;SDS011;6667;52.634;9.226;2022-10-16T08:56:54;1.80;;;1.20;;
13204;SDS011;6667;52.634;9.226;2022-10-16T08:59:21;3.53;;;1.20;;
13204;SDS011;6667;52.634;9.226;2022-10-16T09:01:51;1.40;;;1.20;;
13204;SDS011;6667;52.634;9.226;2022-10-16T09:07:13;1.30;;;1.20;;
13204;SDS011;6667;52.634;9.226;2022-10-16T09:09:54;1.50;;;1.20;;
13204;SDS011;6667;52.634;9.226;2022-10-16T09:12:33;1.40;;;1.00;;
13204;SDS011;6667;52.634;9.226;2022-10-16T09:15:10;1.63;;;1.17;;
13204;SDS011;6667;52.634;9.226;2022-10-16T09:17:46;1.20;;;1.00;;
13204;SDS011;6667;52.634;9.226;2022-10-16T09:20:32;2.17;;;1.30;;
13204;SDS011;6667;52.634;9.226;2022-10-16T09:23:11;2.67;;;1.50;;
13204;SDS011;6667;52.634;9.226;2022-10-16T09:25:41;1.20;;;1.10;;
13204;SDS011;6667;52.634;9.226;2022-10-16T09:28:10;2.30;;;1.30;;
13204;SDS011;6667;52.634;9.226;2022-10-16T09:30:37;2.17;;;1.10;;
13204;SDS011;6667;52.634;9.226;2022-10-16T09:33:06;3.43;;;1.57;;
13204;SDS011;6667;52.634;9.226;2022-10-16T09:35:36;1.20;;;1.07;;
13204;SDS011;6667;52.634;9.226;2022-10-16T09:38:05;4.23;;;1.10;;
13204;SDS011;6667;52.634;9.226;2022-10-16T09:40:33;2.70;;;1.23;;
13204;SDS011;6667;52.634;9.226;2022-10-16T09:43:03;1.52;;;1.10;;
13204;SDS011;6667;52.634;9.226;2022-10-16T09:45:40;1.50;;;1.23;;
13204;SDS011;6667;52.634;9.226;2022-10-16T09:48:11;3.03;;;1.27;;
13204;SDS011;6667;52.634;9.226;2022-10-16T09:50:44;2.20;;;1.30;;
13204;SDS011;6667;52.634;9.226;2022-10-16T09:53:22;1.50;;;1.35;;
13204;SDS011;6667;52.634;9.226;2022-10-16T09:55:49;2.70;;;1.75;;
13204;SDS011;6667;52.634;9.226;2022-10-16T09:58:16;3.83;;;1.63;;
13204;SDS011;6667;52.634;9.226;2022-10-16T10:00:48;4.00;;;1.42;;
13204;SDS011;6667;52.634;9.226;2022-10-16T10:03:21;3.38;;;1.42;;
13204;SDS011;6667;52.634;9.226;2022-10-16T10:05:59;2.10;;;1.42;;
13204;SDS011;6667;52.634;9.226;2022-10-16T10:08:27;1.83;;;1.50;;
13204;SDS011;6667;52.634;9.226;2022-10-16T10:10:54;1.83;;;1.45;;
13204;SDS011;6667;52.634;9.226;2022-10-16T10:13:21;3.40;;;1.92;;
13204;SDS011;6667;52.634;9.226;2022-10-16T10:15:50;4.53;;;1.63;;
13204;SDS011;6667;52.634;9.226;2022-10-16T10:18:19;1.55;;;1.45;;
13204;SDS011;6667;52.634;9.226;2022-10-16T10:20:58;2.20;;;1.50;;
13204;SDS011;6667;52.634;9.226;2022-10-16T10:23:26;5.55;;;1.83;;
13204;SDS011;6667;52.634;9.226;2022-10-16T10:25:55;2.65;;;1.63;;
13204;SDS011;6667;52.634;9.226;2022-10-16T10:28:42;2.08;;;1.35;;
13204;SDS011;6667;52.634;9.226;2022-10-16T10:31:18;3.42;;;1.75;;
13204;SDS011;6667;52.634;9.226;2022-10-16T10:33:50;4.20;;;1.67;;
13204;SDS011;6667;52.634;9.226;2022-10-16T10:36:29;4.55;;;1.55;;
13204;SDS011;6667;52.634;9.226;2022-10-16T10:39:00;3.00;;;1.50;;
13204;SDS011;6667;52.634;9.226;2022-10-16T10:41:42;3.63;;;1.70;;
13204;SDS011;6667;52.634;9.226;2022-10-16T10:44:43;1.48;;;1.38;;
13204;SDS011;6667;52.634;9.226;2022-10-16T10:47:24;4.75;;;1.58;;
13204;SDS011;6667;52.634;9.226;2022-10-16T10:50:03;1.73;;;1.40;;
13204;SDS011;6667;52.634;9.226;2022-10-16T10:52:47;3.05;;;1.30;;
13204;SDS011;6667;52.634;9.226;2022-10-16T10:55:23;2.72;;;1.48;;
13204;SDS011;6667;52.634;9.226;2022-10-16T10:58:04;1.77;;;1.20;;
13204;SDS011;6667;52.634;9.226;2022-10-16T11:00:44;3.92;;;1.52;;
13204;SDS011;6667;52.634;9.226;2022-10-16T11:03:21;2.30;;;1.17;;
13204;SDS011;6667;52.634;9.226;2022-10-16T11:05:58;1.65;;;1.00;;
13204;SDS011;6667;52.634;9.226;2022-10-16T11:08:33;2.80;;;1.55;;
13204;SDS011;6667;52.634;9.226;2022-10-16T11:11:05;1.70;;;1.23;;
13204;SDS011;6667;52.634;9.226;2022-10-16T11:13:37;1.20;;;1.00;;
13204;SDS011;6667;52.634;9.226;2022-10-16T11:16:11;4.82;;;1.30;;
13204;SDS011;6667;52.634;9.226;2022-10-16T11:18:44;2.95;;;1.48;;
13204;SDS011;6667;52.634;9.226;2022-10-16T11:21:16;2.15;;;1.10;;
13204;SDS011;6667;52.634;9.226;2022-10-16T11:23:48;2.42;;;1.45;;
13204;SDS011;6667;52.634;9.226;2022-10-16T11:26:23;3.25;;;1.10;;
13204;SDS011;6667;52.634;9.226;2022-10-16T11:28:54;1.10;;;1.00;;
13204;SDS011;6667;52.634;9.226;2022-10-16T11:31:24;3.20;;;1.38;;
13204;SDS011;6667;52.634;9.226;2022-10-16T11:33:59;3.38;;;1.13;;
13204;SDS011;6667;52.634;9.226;2022-10-16T11:36:32;1.02;;;0.90;;
13204;SDS011;6667;52.634;9.226;2022-10-16T11:39:04;1.17;;;1.05;;
13204;SDS011;6667;52.634;9.226;2022-10-16T11:41:41;1.92;;;0.90;;
13204;SDS011;6667;52.634;9.226;2022-10-16T11:44:17;2.25;;;1.33;;
13204;SDS011;6667;52.634;9.226;2022-10-16T11:46:58;1.58;;;0.88;;
13204;SDS011;6667;52.634;9.226;2022-10-16T11:49:31;1.27;;;0.90;;
13204;SDS011;6667;52.634;9.226;2022-10-16T11:52:00;1.02;;;0.80;;
13204;SDS011;6667;52.634;9.226;2022-10-16T11:54:44;1.15;;;0.80;;
13204;SDS011;6667;52.634;9.226;2022-10-16T11:57:16;2.45;;;1.20;;
13204;SDS011;6667;52.634;9.226;2022-10-16T11:59:46;1.05;;;0.90;;
13204;SDS011;6667;52.634;9.226;2022-10-16T12:02:26;0.70;;;0.70;;
13204;SDS011;6667;52.634;9.226;2022-10-16T12:05:07;2.88;;;0.90;;
13204;SDS011;6667;52.634;9.226;2022-10-16T12:07:42;1.00;;;0.70;;
13204;SDS011;6667;52.634;9.226;2022-10-16T12:10:22;2.42;;;0.80;;
13204;SDS011;6667;52.634;9.226;2022-10-16T12:12:50;4.00;;;1.15;;
13204;SDS011;6667;52.634;9.226;2022-10-16T12:15:18;3.67;;;1.05;;
13204;SDS011;6667;52.634;9.226;2022-10-16T12:17:47;3.75;;;0.90;;
13204;SDS011;6667;52.634;9.226;2022-10-16T12:20:19;2.55;;;1.02;;
13204;SDS011;6667;52.634;9.226;2022-10-16T12:22:53;2.78;;;1.80;;
13204;SDS011;6667;52.634;9.226;2022-10-16T12:25:24;1.75;;;0.60;;
13204;SDS011;6667;52.634;9.226;2022-10-16T12:27:54;2.92;;;0.88;;
13204;SDS011;6667;52.634;9.226;2022-10-16T12:30:23;1.65;;;0.80;;
13204;SDS011;6667;52.634;9.226;2022-10-16T12:32:55;1.05;;;0.70;;
13204;SDS011;6667;52.634;9.226;2022-10-16T12:35:25;3.40;;;0.90;;
13204;SDS011;6667;52.634;9.226;2022-10-16T12:37:54;2.85;;;0.70;;
13204;SDS011;6667;52.634;9.226;2022-10-16T12:40:34;1.67;;;0.70;;
13204;SDS011;6667;52.634;9.226;2022-10-16T12:43:24;2.97;;;0.80;;
13204;SDS011;6667;52.634;9.226;2022-10-16T12:46:01;1.15;;;0.77;;
13204;SDS011;6667;52.634;9.226;2022-10-16T12:48:29;2.03;;;0.88;;
13204;SDS011;6667;52.634;9.226;2022-10-16T12:50:56;3.88;;;1.48;;
13204;SDS011;6667;52.634;9.226;2022-10-16T12:53:35;3.35;;;1.08;;
13204;SDS011;6667;52.634;9.226;2022-10-16T12:56:05;3.08;;;0.90;;
13204;SDS011;6667;52.634;9.226;2022-10-16T12:58:48;1.13;;;0.80;;
13204;SDS011;6667;52.634;9.226;2022-10-16T13:01:27;1.45;;;0.80;;
13204;SDS011;6667;52.634;9.226;2022-10-16T13:04:11;2.00;;;1.00;;
13204;SDS011;6667;52.634;9.226;2022-10-16T13:07:15;2.58;;;0.95;;
13204;SDS011;6667;52.634;9.226;2022-10-16T13:10:07;1.55;;;0.80;;
13204;SDS011;6667;52.634;9.226;2022-10-16T13:12:49;4.80;;;0.90;;
13204;SDS011;6667;52.634;9.226;2022-10-16T13:15:39;4.18;;;0.80;;
13204;SDS011;6667;52.634;9.226;2022-10-16T13:18:18;2.83;;;0.80;;
13204;SDS011;6667;52.634;9.226;2022-10-16T13:20:56;2.38;;;0.85;;
13204;SDS011;6667;52.634;9.226;2022-10-16T13:23:36;1.95;;;0.88;;
13204;SDS011;6667;52.634;9.226;2022-10-16T13:26:13;1.70;;;0.80;;
13204;SDS011;6667;52.634;9.226;2022-10-16T13:28:49;1.55;;;0.80;;
13204;SDS011;6667;52.634;9.226;2022-10-16T13:31:17;1.95;;;0.70;;
13204;SDS011;6667;52.634;9.226;2022-10-16T13:33:47;1.50;;;0.80;;
13204;SDS011;6667;52.634;9.226;2022-10-16T13:36:18;3.90;;;1.08;;
13204;SDS011;6667;52.634;9.226;2022-10-16T13:38:46;3.05;;;0.70;;
13204;SDS011;6667;52.634;9.226;2022-10-16T13:41:13;1.92;;;1.00;;
13204;SDS011;6667;52.634;9.226;2022-10-16T13:43:42;2.65;;;1.10;;
13204;SDS011;6667;52.634;9.226;2022-10-16T13:46:13;1.05;;;0.55;;
13204;SDS011;6667;52.634;9.226;2022-10-16T13:48:41;0.70;;;0.60;;
13204;SDS011;6667;52.634;9.226;2022-10-16T13:51:12;3.53;;;0.77;;
13204;SDS011;6667;52.634;9.226;2022-10-16T13:53:40;1.88;;;0.70;;
13204;SDS011;6667;52.634;9.226;2022-10-16T13:56:09;1.30;;;0.80;;
13204;SDS011;6667;52.634;9.226;2022-10-16T13:58:38;2.05;;;0.70;;
13204;SDS011;6667;52.634;9.226;2022-10-16T14:01:05;1.67;;;0.80;;
13204;SDS011;6667;52.634;9.226;2022-10-16T14:03:41;2.30;;;0.82;;
13204;SDS011;6667;52.634;9.226;2022-10-16T14:06:11;2.08;;;0.88;;
13204;SDS011;6667;52.634;9.226;2022-10-16T14:08:41;1.58;;;0.80;;
13204;SDS011;6667;52.634;9.226;2022-10-16T14:11:09;1.83;;;0.88;;
13204;SDS011;6667;52.634;9.226;2022-10-16T14:13:37;2.45;;;0.88;;
13204;SDS011;6667;52.634;9.226;2022-10-16T14:16:07;3.20;;;0.95;;
13204;SDS011;6667;52.634;9.226;2022-10-16T14:18:38;2.60;;;0.93;;
13204;SDS011;6667;52.634;9.226;2022-10-16T14:21:06;2.20;;;0.80;;
13204;SDS011;6667;52.634;9.226;2022-10-16T14:23:38;3.70;;;1.20;;
13204;SDS011;6667;52.634;9.226;2022-10-16T14:26:11;2.35;;;0.80;;
13204;SDS011;6667;52.634;9.226;2022-10-16T14:28:40;1.52;;;0.73;;
13204;SDS011;6667;52.634;9.226;2022-10-16T14:31:21;1.38;;;0.80;;
13204;SDS011;6667;52.634;9.226;2022-10-16T14:33:53;2.63;;;0.80;;
13204;SDS011;6667;52.634;9.226;2022-10-16T14:36:20;4.20;;;1.77;;
13204;SDS011;6667;52.634;9.226;2022-10-16T14:38:48;2.92;;;1.95;;
13204;SDS011;6667;52.634;9.226;2022-10-16T14:41:20;3.50;;;1.13;;
13204;SDS011;6667;52.634;9.226;2022-10-16T14:43:49;4.63;;;1.35;;
13204;SDS011;6667;52.634;9.226;2022-10-16T14:46:20;1.90;;;1.08;;
13204;SDS011;6667;52.634;9.226;2022-10-16T14:48:51;1.08;;;0.73;;
13204;SDS011;6667;52.634;9.226;2022-10-16T14:51:24;1.95;;;0.80;;
13204;SDS011;6667;52.634;9.226;2022-10-16T14:53:52;1.38;;;1.05;;
13204;SDS011;6667;52.634;9.226;2022-10-16T14:56:19;1.90;;;0.95;;
13204;SDS011;6667;52.634;9.226;2022-10-16T14:58:47;1.05;;;0.90;;
13204;SDS011;6667;52.634;9.226;2022-10-16T15:01:15;6.18;;;1.23;;
13204;SDS011;6667;52.634;9.226;2022-10-16T15:03:42;2.25;;;1.00;;
13204;SDS011;6667;52.634;9.226;2022-10-16T15:06:11;2.95;;;1.20;;
13204;SDS011;6667;52.634;9.226;2022-10-16T15:08:38;3.63;;;1.35;;
13204;SDS011;6667;52.634;9.226;2022-10-16T15:11:05;1.88;;;1.10;;
13204;SDS011;6667;52.634;9.226;2022-10-16T15:13:36;1.45;;;1.15;;
13204;SDS011;6667;52.634;9.226;2022-10-16T15:16:03;4.72;;;1.38;;
13204;SDS011;6667;52.634;9.226;2022-10-16T15:18:30;1.50;;;1.10;;
13204;SDS011;6667;52.634;9.226;2022-10-16T15:20:57;1.95;;;1.30;;
13204;SDS011;6667;52.634;9.226;2022-10-16T15:23:25;4.05;;;0.93;;
13204;SDS011;6667;52.634;9.226;2022-10-16T15:25:52;3.28;;;1.25;;
13204;SDS011;6667;52.634;9.226;2022-10-16T15:28:21;1.92;;;1.08;;
13204;SDS011;6667;52.634;9.226;2022-10-16T15:30:49;3.13;;;1.20;;
13204;SDS011;6667;52.634;9.226;2022-10-16T15:33:18;2.33;;;1.13;;
13204;SDS011;6667;52.634;9.226;2022-10-16T15:35:47;2.20;;;1.08;;
13204;SDS011;6667;52.634;9.226;2022-10-16T15:38:15;2.88;;;1.00;;
13204;SDS011;6667;52.634;9.226;2022-10-16T15:40:45;4.00;;;1.08;;
13204;SDS011;6667;52.634;9.226;2022-10-16T15:43:12;3.95;;;1.23;;
13204;SDS011;6667;52.634;9.226;2022-10-16T15:45:38;2.08;;;1.20;;
13204;SDS011;6667;52.634;9.226;2022-10-16T15:48:05;3.33;;;1.05;;
13204;SDS011;6667;52.634;9.226;2022-10-16T15:50:32;1.98;;;1.08;;
13204;SDS011;6667;52.634;9.226;2022-10-16T15:52:59;2.60;;;1.27;;
13204;SDS011;6667;52.634;9.226;2022-10-16T15:55:25;3.40;;;1.15;;
13204;SDS011;6667;52.634;9.226;2022-10-16T15:57:53;3.75;;;1.10;;
13204;SDS011;6667;52.634;9.226;2022-10-16T16:00:20;3.65;;;1.50;;
13204;SDS011;6667;52.634;9.226;2022-10-16T16:02:49;5.13;;;1.98;;
13204;SDS011;6667;52.634;9.226;2022-10-16T16:05:17;4.20;;;1.40;;
13204;SDS011;6667;52.634;9.226;2022-10-16T16:07:45;2.17;;;1.27;;
13204;SDS011;6667;52.634;9.226;2022-10-16T16:10:11;3.55;;;1.20;;
13204;SDS011;6667;52.634;9.226;2022-10-16T16:12:38;3.42;;;1.20;;
13204;SDS011;6667;52.634;9.226;2022-10-16T16:15:07;4.18;;;1.67;;
13204;SDS011;6667;52.634;9.226;2022-10-16T16:17:36;5.32;;;3.83;;
13204;SDS011;6667;52.634;9.226;2022-10-16T16:20:03;2.55;;;1.83;;
13204;SDS011;6667;52.634;9.226;2022-10-16T16:22:30;4.10;;;1.50;;
13204;SDS011;6667;52.634;9.226;2022-10-16T16:24:57;1.95;;;1.08;;
13204;SDS011;6667;52.634;9.226;2022-10-16T16:27:24;1.30;;;1.20;;
13204;SDS011;6667;52.634;9.226;2022-10-16T16:29:51;2.05;;;1.35;;
13204;SDS011;6667;52.634;9.226;2022-10-16T16:32:19;1.85;;;1.30;;
13204;SDS011;6667;52.634;9.226;2022-10-16T16:34:46;2.88;;;1.30;;
13204;SDS011;6667;52.634;9.226;2022-10-16T16:37:13;2.08;;;1.25;;
13204;SDS011;6667;52.634;9.226;2022-10-16T16:39:40;5.30;;;1.57;;
13204;SDS011;6667;52.634;9.226;2022-10-16T16:42:07;2.10;;;1.25;;
13204;SDS011;6667;52.634;9.226;2022-10-16T16:44:35;2.22;;;1.52;;
13204;SDS011;6667;52.634;9.226;2022-10-16T16:47:02;8.63;;;1.37;;
13204;SDS011;6667;52.634;9.226;2022-10-16T16:49:30;4.40;;;1.13;;
13204;SDS011;6667;52.634;9.226;2022-10-16T16:51:57;3.95;;;1.30;;
13204;SDS011;6667;52.634;9.226;2022-10-16T16:54:23;2.83;;;1.30;;
13204;SDS011;6667;52.634;9.226;2022-10-16T16:56:51;1.77;;;1.23;;
13204;SDS011;6667;52.634;9.226;2022-10-16T16:59:18;5.28;;;1.70;;
13204;SDS011;6667;52.634;9.226;2022-10-16T17:01:46;3.83;;;1.60;;
13204;SDS011;6667;52.634;9.226;2022-10-16T17:04:14;2.58;;;1.38;;
13204;SDS011;6667;52.634;9.226;2022-10-16T17:06:42;2.30;;;1.60;;
13204;SDS011;6667;52.634;9.226;2022-10-16T17:09:10;3.17;;;1.57;;
13204;SDS011;6667;52.634;9.226;2022-10-16T17:11:40;3.30;;;1.48;;
13204;SDS011;6667;52.634;9.226;2022-10-16T17:14:08;1.67;;;1.57;;
13204;SDS011;6667;52.634;9.226;2022-10-16T17:16:35;5.73;;;2.50;;
13204;SDS011;6667;52.634;9.226;2022-10-16T17:19:04;5.47;;;2.50;;
13204;SDS011;6667;52.634;9.226;2022-10-16T17:21:32;3.80;;;1.93;;
13204;SDS011;6667;52.634;9.226;2022-10-16T17:24:01;6.23;;;2.47;;
13204;SDS011;6667;52.634;9.226;2022-10-16T17:26:28;3.57;;;2.30;;
13204;SDS011;6667;52.634;9.226;2022-10-16T17:28:56;3.77;;;2.00;;
13204;SDS011;6667;52.634;9.226;2022-10-16T17:31:27;3.47;;;2.10;;
13204;SDS011;6667;52.634;9.226;2022-10-16T17:33:56;3.93;;;2.33;;
13204;SDS011;6667;52.634;9.226;2022-10-16T17:36:23;6.33;;;2.57;;
13204;SDS011;6667;52.634;9.226;2022-10-16T17:38:50;2.83;;;1.90;;
13204;SDS011;6667;52.634;9.226;2022-10-16T17:41:19;4.53;;;2.00;;
13204;SDS011;6667;52.634;9.226;2022-10-16T17:43:47;3.87;;;2.43;;
13204;SDS011;6667;52.634;9.226;2022-10-16T17:46:15;6.97;;;2.37;;
13204;SDS011;6667;52.634;9.226;2022-10-16T17:48:44;3.93;;;2.20;;
13204;SDS011;6667;52.634;9.226;2022-10-16T17:51:13;4.90;;;2.20;;
13204;SDS011;6667;52.634;9.226;2022-10-16T17:53:41;3.50;;;2.30;;
13204;SDS011;6667;52.634;9.226;2022-10-16T17:56:09;4.60;;;2.70;;
13204;SDS011;6667;52.634;9.226;2022-10-16T17:58:39;3.93;;;2.27;;
13204;SDS011;6667;52.634;9.226;2022-10-16T18:01:12;5.37;;;2.83;;
13204;SDS011;6667;52.634;9.226;2022-10-16T18:03:40;4.93;;;2.10;;
13204;SDS011;6667;52.634;9.226;2022-10-16T18:06:07;3.93;;;2.37;;
13204;SDS011;6667;52.634;9.226;2022-10-16T18:08:36;4.60;;;2.40;;
13204;SDS011;6667;52.634;9.226;2022-10-16T18:11:03;6.23;;;2.23;;
13204;SDS011;6667;52.634;9.226;2022-10-16T18:13:30;5.23;;;2.83;;
13204;SDS011;6667;52.634;9.226;2022-10-16T18:15:59;3.40;;;2.40;;
13204;SDS011;6667;52.634;9.226;2022-10-16T18:18:27;3.67;;;2.57;;
13204;SDS011;6667;52.634;9.226;2022-10-16T18:20:57;5.40;;;2.97;;
13204;SDS011;6667;52.634;9.226;2022-10-16T18:23:24;4.27;;;2.87;;
13204;SDS011;6667;52.634;9.226;2022-10-16T18:25:51;5.17;;;3.20;;
13204;SDS011;6667;52.634;9.226;2022-10-16T18:28:18;7.77;;;4.73;;
13204;SDS011;6667;52.634;9.226;2022-10-16T18:30:53;7.07;;;4.80;;
13204;SDS011;6667;52.634;9.226;2022-10-16T18:33:21;7.80;;;4.97;;
13204;SDS011;6667;52.634;9.226;2022-10-16T18:35:48;5.90;;;4.60;;
13204;SDS011;6667;52.634;9.226;2022-10-16T18:38:15;7.97;;;4.70;;
13204;SDS011;6667;52.634;9.226;2022-10-16T18:40:42;7.33;;;4.40;;
13204;SDS011;6667;52.634;9.226;2022-10-16T18:43:08;5.37;;;3.63;;
13204;SDS011;6667;52.634;9.226;2022-10-16T18:45:35;5.00;;;3.10;;
13204;SDS011;6667;52.634;9.226;2022-10-16T18:48:02;8.83;;;3.70;;
13204;SDS011;6667;52.634;9.226;2022-10-16T18:50:30;5.87;;;3.20;;
13204;SDS011;6667;52.634;9.226;2022-10-16T18:52:57;4.47;;;2.40;;
13204;SDS011;6667;52.634;9.226;2022-10-16T18:55:24;4.73;;;2.93;;
13204;SDS011;6667;52.634;9.226;2022-10-16T18:57:53;6.67;;;3.50;;
13204;SDS011;6667;52.634;9.226;2022-10-16T19:00:20;7.57;;;3.50;;
13204;SDS011;6667;52.634;9.226;2022-10-16T19:02:46;4.07;;;3.30;;
13204;SDS011;6667;52.634;9.226;2022-10-16T19:05:13;11.07;;;3.83;;
13204;SDS011;6667;52.634;9.226;2022-10-16T19:07:42;4.93;;;3.00;;
13204;SDS011;6667;52.634;9.226;2022-10-16T19:10:11;7.33;;;3.40;;
13204;SDS011;6667;52.634;9.226;2022-10-16T19:12:37;7.20;;;4.10;;
13204;SDS011;6667;52.634;9.226;2022-10-16T19:15:05;6.00;;;3.33;;
13204;SDS011;6667;52.634;9.226;2022-10-16T19:17:32;8.07;;;3.80;;
13204;SDS011;6667;52.634;9.226;2022-10-16T19:20:00;4.80;;;3.63;;
13204;SDS011;6667;52.634;9.226;2022-10-16T19:22:27;5.80;;;4.10;;
13204;SDS011;6667;52.634;9.226;2022-10-16T19:25:16;7.30;;;4.10;;
13204;SDS011;6667;52.634;9.226;2022-10-16T19:27:46;7.87;;;4.20;;
13204;SDS011;6667;52.634;9.226;2022-10-16T19:30:13;7.00;;;3.63;;
13204;SDS011;6667;52.634;9.226;2022-10-16T19:32:40;5.80;;;3.30;;
13204;SDS011;6667;52.634;9.226;2022-10-16T19:35:07;7.63;;;3.93;;
13204;SDS011;6667;52.634;9.226;2022-10-16T19:37:34;4.57;;;3.33;;
13204;SDS011;6667;52.634;9.226;2022-10-16T19:40:01;6.83;;;3.03;;
13204;SDS011;6667;52.634;9.226;2022-10-16T19:42:30;6.40;;;3.00;;
13204;SDS011;6667;52.634;9.226;2022-10-16T19:44:57;5.57;;;3.80;;
13204;SDS011;6667;52.634;9.226;2022-10-16T19:47:23;6.03;;;3.60;;
13204;SDS011;6667;52.634;9.226;2022-10-16T19:49:50;5.80;;;3.20;;
13204;SDS011;6667;52.634;9.226;2022-10-16T19:52:17;5.83;;;3.37;;
13204;SDS011;6667;52.634;9.226;2022-10-16T19:54:46;8.00;;;3.00;;
13204;SDS011;6667;52.634;9.226;2022-10-16T19:57:12;7.87;;;2.90;;
13204;SDS011;6667;52.634;9.226;2022-10-16T19:59:40;4.33;;;2.40;;
13204;SDS011;6667;52.634;9.226;2022-10-16T20:02:08;5.23;;;3.10;;
13204;SDS011;6667;52.634;9.226;2022-10-16T20:04:35;7.27;;;3.60;;
13204;SDS011;6667;52.634;9.226;2022-10-16T20:07:02;4.47;;;3.30;;
13204;SDS011;6667;52.634;9.226;2022-10-16T20:09:28;7.40;;;3.30;;
13204;SDS011;6667;52.634;9.226;2022-10-16T20:11:56;5.73;;;3.67;;
13204;SDS011;6667;52.634;9.226;2022-10-16T20:14:22;12.60;;;4.43;;
13204;SDS011;6667;52.634;9.226;2022-10-16T20:16:51;4.80;;;3.30;;
13204;SDS011;6667;52.634;9.226;2022-10-16T20:19:18;5.93;;;3.83;;
13204;SDS011;6667;52.634;9.226;2022-10-16T20:21:45;5.20;;;3.00;;
13204;SDS011;6667;52.634;9.226;2022-10-16T20:24:11;5.90;;;3.10;;
13204;SDS011;6667;52.634;9.226;2022-10-16T20:26:39;7.27;;;3.37;;
13204;SDS011;6667;52.634;9.226;2022-10-16T20:29:06;3.80;;;3.00;;
13204;SDS011;6667;52.634;9.226;2022-10-16T20:31:33;6.03;;;2.97;;
13204;SDS011;6667;52.634;9.226;2022-10-16T20:34:02;7.30;;;3.70;;
13204;SDS011;6667;52.634;9.226;2022-10-16T20:36:30;4.67;;;3.03;;
13204;SDS011;6667;52.634;9.226;2022-10-16T20:38:58;6.53;;;3.13;;
13204;SDS011;6667;52.634;9.226;2022-10-16T20:41:24;7.37;;;2.93;;
13204;SDS011;6667;52.634;9.226;2022-10-16T20:43:51;4.73;;;2.47;;
13204;SDS011;6667;52.634;9.226;2022-10-16T20:46:20;2.87;;;2.50;;
13204;SDS011;6667;52.634;9.226;2022-10-16T20:48:48;5.03;;;2.23;;
13204;SDS011;6667;52.634;9.226;2022-10-16T20:51:17;3.80;;;2.50;;
13204;SDS011;6667;52.634;9.226;2022-10-16T20:53:46;2.60;;;1.97;;
13204;SDS011;6667;52.634;9.226;2022-10-16T20:56:16;5.27;;;2.33;;
13204;SDS011;6667;52.634;9.226;2022-10-16T20:58:43;6.60;;;2.73;;
13204;SDS011;6667;52.634;9.226;2022-10-16T21:01:13;5.03;;;3.47;;
13204;SDS011;6667;52.634;9.226;2022-10-16T21:03:40;6.23;;;2.53;;
13204;SDS011;6667;52.634;9.226;2022-10-16T21:06:08;5.93;;;2.20;;
13204;SDS011;6667;52.634;9.226;2022-10-16T21:08:38;3.43;;;2.47;;
13204;SDS011;6667;52.634;9.226;2022-10-16T21:11:10;3.87;;;2.67;;
13204;SDS011;6667;52.634;9.226;2022-10-16T21:13:38;6.70;;;2.50;;
13204;SDS011;6667;52.634;9.226;2022-10-16T21:16:05;3.33;;;2.50;;
13204;SDS011;6667;52.634;9.226;2022-10-16T21:18:32;4.43;;;2.67;;
13204;SDS011;6667;52.634;9.226;2022-10-16T21:20:59;3.77;;;2.30;;
13204;SDS011;6667;52.634;9.226;2022-10-16T21:23:26;3.67;;;1.90;;
13204;SDS011;6667;52.634;9.226;2022-10-16T21:25:54;3.43;;;2.00;;
13204;SDS011;6667;52.634;9.226;2022-10-16T21:28:20;6.07;;;2.17;;
13204;SDS011;6667;52.634;9.226;2022-10-16T21:30:47;2.57;;;2.37;;
13204;SDS011;6667;52.634;9.226;2022-10-16T21:33:14;4.73;;;2.73;;
13204;SDS011;6667;52.634;9.226;2022-10-16T21:35:41;4.73;;;3.00;;
13204;SDS011;6667;52.634;9.226;2022-10-16T21:38:07;3.07;;;2.50;;
13204;SDS011;6667;52.634;9.226;2022-10-16T21:40:34;3.23;;;2.93;;
13204;SDS011;6667;52.634;9.226;2022-10-16T21:43:02;3.63;;;2.70;;
13204;SDS011;6667;52.634;9.226;2022-10-16T21:45:29;4.83;;;2.90;;
13204;SDS011;6667;52.634;9.226;2022-10-16T21:47:56;4.47;;;2.80;;
13204;SDS011;6667;52.634;9.226;2022-10-16T21:50:23;6.30;;;2.93;;
13204;SDS011;6667;52.634;9.226;2022-10-16T21:52:49;9.23;;;3.90;;
13204;SDS011;6667;52.634;9.226;2022-10-16T21:55:16;4.20;;;3.70;;
13204;SDS011;6667;52.634;9.226;2022-10-16T21:57:43;2.37;;;2.20;;
13204;SDS011;6667;52.634;9.226;2022-10-16T22:00:12;5.70;;;2.60;;
13204;SDS011;6667;52.634;9.226;2022-10-16T22:02:39;4.10;;;2.73;;
13204;SDS011;6667;52.634;9.226;2022-10-16T22:05:07;3.43;;;2.40;;
13204;SDS011;6667;52.634;9.226;2022-10-16T22:07:34;3.07;;;2.27;;
13204;SDS011;6667;52.634;9.226;2022-10-16T22:10:00;4.07;;;2.73;;
13204;SDS011;6667;52.634;9.226;2022-10-16T22:12:27;4.20;;;2.50;;
13204;SDS011;6667;52.634;9.226;2022-10-16T22:14:54;5.33;;;2.67;;
13204;SDS011;6667;52.634;9.226;2022-10-16T22:17:22;9.00;;;3.20;;
13204;SDS011;6667;52.634;9.226;2022-10-16T22:19:49;3.93;;;2.50;;
13204;SDS011;6667;52.634;9.226;2022-10-16T22:22:15;4.60;;;2.80;;
13204;SDS011;6667;52.634;9.226;2022-10-16T22:24:42;2.90;;;2.60;;